createdAt,value
2022-12-13T00:07:36.030Z,-0.69
2022-12-13T00:12:39.099Z,-0.75
2022-12-13T00:17:42.059Z,-0.74
2022-12-13T00:22:52.935Z,-0.74
2022-12-13T00:27:55.676Z,-0.74
2022-12-13T00:32:58.442Z,-0.75
2022-12-13T00:38:06.518Z,-0.74
2022-12-13T00:48:31.091Z,-0.71
2022-12-13T00:53:33.986Z,-0.80
2022-12-13T00:58:37.134Z,-0.83
2022-12-13T01:03:46.476Z,-0.86
2022-12-13T01:08:51.023Z,-0.89
2022-12-13T01:13:54.127Z,-0.93
2022-12-13T01:19:03.378Z,-0.96
2022-12-13T01:24:07.707Z,-0.99
2022-12-13T01:29:10.739Z,-1.02
2022-12-13T01:39:38.264Z,-1.06
2022-12-13T01:56:12.326Z,-1.24
2022-12-13T02:06:39.838Z,-1.34
2022-12-13T02:11:45.506Z,-1.44
2022-12-13T02:16:58.694Z,-1.47
2022-12-13T02:22:22.729Z,-1.50
2022-12-13T02:27:49.273Z,-1.53
2022-12-13T02:49:04.260Z,-1.65
2022-12-13T03:04:49.199Z,-1.69
2022-12-13T03:09:59.918Z,-1.74
2022-12-13T03:15:13.704Z,-1.74
2022-12-13T03:20:26.927Z,-1.72
2022-12-13T03:25:32.953Z,-1.69
2022-12-13T03:30:36.189Z,-1.67
2022-12-13T03:41:08.827Z,-1.53
2022-12-13T03:46:12.196Z,-1.55
2022-12-13T03:51:15.135Z,-1.54
2022-12-13T03:56:23.291Z,-1.51
2022-12-13T04:06:49.816Z,-1.39
2022-12-13T04:17:12.315Z,-1.35
2022-12-13T04:22:17.932Z,-1.39
2022-12-13T04:32:42.667Z,-1.26
2022-12-13T04:37:46.599Z,-1.31
2022-12-13T04:42:49.323Z,-1.28
2022-12-13T04:48:02.467Z,-1.25
2022-12-13T04:53:05.248Z,-1.23
2022-12-13T04:58:08.058Z,-1.22
2022-12-13T05:03:16.627Z,-1.20
2022-12-13T05:08:19.472Z,-1.20
2022-12-13T05:13:22.334Z,-1.20
2022-12-13T05:18:30.720Z,-1.19
2022-12-13T05:23:34.222Z,-1.17
2022-12-13T05:28:37.532Z,-1.16
2022-12-13T05:33:45.763Z,-1.16
2022-12-13T05:38:48.719Z,-1.15
2022-12-13T05:43:52.076Z,-1.14
2022-12-13T05:49:00.179Z,-1.13
2022-12-13T05:54:03.022Z,-1.11
2022-12-13T05:59:05.798Z,-1.11
2022-12-13T06:04:22.474Z,-1.10
2022-12-13T06:14:47.868Z,-1.04
2022-12-13T06:19:50.881Z,-1.10
2022-12-13T06:24:53.735Z,-1.12
2022-12-13T06:30:02.767Z,-1.10
2022-12-13T06:35:27.442Z,-1.10
2022-12-13T06:40:29.161Z,-1.08
2022-12-13T06:45:39.861Z,-1.06
2022-12-13T07:01:24.251Z,-0.97
2022-12-13T07:06:27.831Z,-1.01
2022-12-13T07:11:32.353Z,-1.01
2022-12-13T07:16:41.499Z,-0.99
2022-12-13T07:21:44.808Z,-0.98
2022-12-13T07:32:07.449Z,-0.88
2022-12-13T07:37:30.189Z,-0.93
2022-12-13T07:47:54.923Z,-0.85
2022-12-13T07:52:57.715Z,-0.89
2022-12-13T07:58:04.842Z,-0.88
2022-12-13T08:08:39.925Z,-0.78
2022-12-13T08:13:43.201Z,-0.82
2022-12-13T08:18:46.330Z,-0.82
2022-12-13T08:23:55.685Z,-0.81
2022-12-13T08:28:58.483Z,-0.78
2022-12-13T08:34:01.279Z,-0.78
2022-12-13T08:44:30.413Z,-0.69
2022-12-13T09:11:11.187Z,-0.60
2022-12-13T09:16:26.573Z,-0.63
2022-12-13T09:27:27.218Z,-0.47
2022-12-13T09:32:32.852Z,-0.48
2022-12-13T09:37:37.781Z,-0.45
2022-12-13T09:48:23.080Z,-0.30
2022-12-13T09:53:26.045Z,-0.31
2022-12-13T09:58:36.674Z,-0.28
2022-12-13T10:03:49.115Z,-0.25
2022-12-13T10:14:21.137Z,-0.11
2022-12-13T10:19:30.233Z,-0.12
2022-12-13T10:30:27.743Z,0.03
2022-12-13T10:41:01.263Z,0.16
2022-12-13T10:51:23.935Z,1.14
2022-12-13T10:56:36.996Z,1.46
2022-12-13T11:01:40.011Z,1.74
2022-12-13T11:06:49.324Z,1.88
2022-12-13T11:22:41.652Z,1.88
2022-12-13T11:28:26.270Z,1.68
2022-12-13T11:33:47.681Z,1.57
2022-12-13T11:39:10.636Z,1.41
2022-12-13T11:44:19.164Z,1.25
2022-12-13T12:00:34.768Z,1.68
2022-12-13T12:05:42.246Z,1.65
2022-12-13T12:16:32.939Z,1.66
2022-12-13T12:22:12.853Z,1.46
2022-12-13T12:27:22.619Z,1.32
2022-12-13T12:32:41.234Z,1.19
2022-12-13T12:37:53.803Z,1.04
2022-12-13T12:54:20.208Z,0.80
2022-12-13T13:16:00.504Z,0.48
2022-12-13T13:21:35.695Z,0.37
2022-12-13T13:26:42.534Z,0.32
2022-12-13T13:37:51.539Z,0.33
2022-12-13T13:43:32.671Z,0.28
2022-12-13T13:48:50.150Z,0.30
2022-12-13T13:54:37.464Z,0.31
2022-12-13T14:00:26.381Z,0.33
2022-12-13T14:12:04.943Z,0.42
2022-12-13T14:22:38.588Z,0.39
2022-12-13T14:27:49.475Z,0.29
2022-12-13T14:38:23.873Z,0.32
2022-12-13T14:43:28.485Z,0.24
2022-12-13T14:48:39.917Z,0.21
2022-12-13T14:53:48.199Z,0.19
2022-12-13T14:58:55.342Z,0.17
2022-12-13T15:09:57.115Z,0.24
2022-12-13T15:30:59.001Z,0.23
2022-12-13T15:36:08.110Z,0.17
2022-12-13T15:41:20.095Z,0.16
2022-12-13T15:46:34.258Z,0.17
2022-12-13T15:51:55.671Z,0.18
2022-12-13T16:13:08.633Z,0.25
2022-12-13T16:18:18.446Z,0.19
2022-12-13T16:23:27.049Z,0.19
2022-12-13T16:28:36.220Z,0.18
2022-12-13T16:33:39.187Z,0.17
2022-12-13T16:38:43.979Z,0.17
2022-12-13T16:43:56.329Z,0.18
2022-12-13T16:54:26.286Z,0.25
2022-12-13T16:59:29.677Z,0.20
2022-12-13T17:04:32.466Z,0.19
2022-12-13T17:09:40.843Z,0.19
2022-12-13T17:14:44.006Z,0.20
2022-12-13T17:19:46.755Z,0.18
2022-12-13T17:30:13.438Z,0.24
2022-12-13T17:35:18.510Z,0.17
2022-12-13T17:45:48.883Z,0.25
2022-12-13T17:50:54.639Z,0.19
2022-12-13T17:55:58.080Z,0.17
2022-12-13T18:01:11.667Z,0.15
2022-12-13T18:11:36.579Z,0.10
2022-12-13T18:16:39.445Z,-0.05
2022-12-13T18:21:42.797Z,-0.13
2022-12-13T18:26:51.958Z,-0.22
2022-12-13T18:31:54.926Z,-0.29
2022-12-13T18:36:58.235Z,-0.36
2022-12-13T18:52:39.563Z,-0.48
2022-12-13T19:03:05.321Z,-0.65
2022-12-13T19:08:08.285Z,-0.78
2022-12-13T19:13:11.497Z,-0.85
2022-12-13T19:23:34.984Z,-0.90
2022-12-13T19:34:10.072Z,-1.03
2022-12-13T19:49:48.644Z,-1.15
2022-12-13T19:54:52.254Z,-1.21
2022-12-13T20:10:43.161Z,-1.17
2022-12-13T20:15:48.165Z,-1.27
2022-12-13T20:26:14.805Z,-1.24
2022-12-13T20:31:22.453Z,-1.32
2022-12-13T20:36:27.175Z,-1.35
2022-12-13T20:46:59.903Z,-1.34
2022-12-13T20:52:03.817Z,-1.42
2022-12-13T20:57:07.714Z,-1.46
2022-12-13T21:07:32.438Z,-1.41
2022-12-13T21:12:37.109Z,-1.52
2022-12-13T21:17:40.245Z,-1.54
2022-12-13T21:33:32.812Z,-1.47
2022-12-13T21:38:36.945Z,-1.55
2022-12-13T21:43:41.919Z,-1.57
2022-12-13T21:48:53.803Z,-1.58
2022-12-13T22:20:33.890Z,-1.58
2022-12-13T22:25:37.620Z,-1.70
2022-12-13T22:30:42.640Z,-1.75
2022-12-13T22:35:51.012Z,-1.79
2022-12-13T22:40:53.863Z,-1.87
2022-12-13T22:46:03.727Z,-1.91
2022-12-13T22:51:17.089Z,-1.96
2022-12-13T22:56:22.105Z,-2.02
2022-12-13T23:01:28.435Z,-2.09
2022-12-13T23:06:39.481Z,-2.17
2022-12-13T23:11:49.382Z,-2.24
2022-12-13T23:16:53.260Z,-2.27
2022-12-13T23:22:01.524Z,-2.32
2022-12-13T23:27:05.998Z,-2.36
2022-12-13T23:32:08.942Z,-2.40
2022-12-13T23:37:18.075Z,-2.44
2022-12-13T23:42:20.969Z,-2.46
2022-12-13T23:52:42.951Z,-2.44
